Aviation Digital Data Service (ADDS)

Output produced by METARs form (1443 UTC 19 April 2019)
found at http://www.aviationweather.gov/metar/data/
 
Forecast for: DNSO (SOKOTO , NG)
Text: TAF DNSO 190340Z 1906/2012 10010KT CAVOK
Forecast period: 0600 UTC 19 April 2019 to 1200 UTC 20 April 2019
Forecast type: FROM: standard forecast or significant change
Winds: from the E (100 degrees) at 12 MPH (10 knots; 5.1 m/s)
Visibility: 6 or more miles 10+ km)
Ceiling: unknown
Clouds: missing
Weather: NSW  (no significant weather)
Text: TEMPO 1908/1914 1500 HZ
Forecast period: 0800 to 1400 UTC 19 April 2019
Forecast type: TEMPORARY: The following changes expected for less than half the time period
Visibility: 0.93 miles (1.50 km)
Ceiling: unknown
Clouds: missing
Weather: HZ  (haze)